sensor_id;sensor_type;location;lat;lon;timestamp;temperature;humidity
530;DHT22;251;48.704;9.210;2024-03-06T00:01:52;4.40;99.90
530;DHT22;251;48.704;9.210;2024-03-06T00:04:20;4.40;99.90
530;DHT22;251;48.704;9.210;2024-03-06T00:06:47;4.50;99.90
530;DHT22;251;48.704;9.210;2024-03-06T00:09:17;4.50;99.90
530;DHT22;251;48.704;9.210;2024-03-06T00:11:44;4.50;99.90
530;DHT22;251;48.704;9.210;2024-03-06T00:14:10;4.60;99.90
530;DHT22;251;48.704;9.210;2024-03-06T00:16:38;4.60;99.90
530;DHT22;251;48.704;9.210;2024-03-06T00:19:04;4.40;99.90
530;DHT22;251;48.704;9.210;2024-03-06T00:21:33;4.70;99.90
530;DHT22;251;48.704;9.210;2024-03-06T00:23:59;4.70;99.90
530;DHT22;251;48.704;9.210;2024-03-06T00:26:26;4.70;99.90
530;DHT22;251;48.704;9.210;2024-03-06T00:28:53;4.50;99.90
530;DHT22;251;48.704;9.210;2024-03-06T00:31:19;4.70;99.90
530;DHT22;251;48.704;9.210;2024-03-06T00:33:46;4.50;99.90
530;DHT22;251;48.704;9.210;2024-03-06T00:36:13;4.70;99.90
530;DHT22;251;48.704;9.210;2024-03-06T00:38:41;4.90;99.90
530;DHT22;251;48.704;9.210;2024-03-06T00:41:08;4.60;99.90
530;DHT22;251;48.704;9.210;2024-03-06T00:43:34;4.60;99.90
530;DHT22;251;48.704;9.210;2024-03-06T00:46:01;4.50;99.90
530;DHT22;251;48.704;9.210;2024-03-06T00:48:28;4.80;99.90
530;DHT22;251;48.704;9.210;2024-03-06T00:50:55;4.70;99.90
530;DHT22;251;48.704;9.210;2024-03-06T00:53:21;4.60;99.90
530;DHT22;251;48.704;9.210;2024-03-06T00:55:51;4.70;99.90
530;DHT22;251;48.704;9.210;2024-03-06T00:58:17;4.70;99.90
530;DHT22;251;48.704;9.210;2024-03-06T01:00:44;4.80;99.90
530;DHT22;251;48.704;9.210;2024-03-06T01:03:11;4.80;99.90
530;DHT22;251;48.704;9.210;2024-03-06T01:05:38;4.50;99.90
530;DHT22;251;48.704;9.210;2024-03-06T01:08:05;4.80;99.90
530;DHT22;251;48.704;9.210;2024-03-06T01:10:32;4.80;99.90
530;DHT22;251;48.704;9.210;2024-03-06T01:13:00;4.80;99.90
530;DHT22;251;48.704;9.210;2024-03-06T01:15:26;4.90;99.90
530;DHT22;251;48.704;9.210;2024-03-06T01:17:53;4.50;99.90
530;DHT22;251;48.704;9.210;2024-03-06T01:20:20;4.50;99.90
530;DHT22;251;48.704;9.210;2024-03-06T01:22:47;4.50;99.90
530;DHT22;251;48.704;9.210;2024-03-06T01:25:13;4.70;99.90
530;DHT22;251;48.704;9.210;2024-03-06T01:27:40;4.70;99.90
530;DHT22;251;48.704;9.210;2024-03-06T01:30:09;4.40;99.90
530;DHT22;251;48.704;9.210;2024-03-06T01:32:36;4.40;99.90
530;DHT22;251;48.704;9.210;2024-03-06T01:35:03;4.50;99.90
530;DHT22;251;48.704;9.210;2024-03-06T01:37:30;4.20;99.90
530;DHT22;251;48.704;9.210;2024-03-06T01:39:57;4.40;99.90
530;DHT22;251;48.704;9.210;2024-03-06T01:42:24;4.40;99.90
530;DHT22;251;48.704;9.210;2024-03-06T01:44:51;4.30;99.90
530;DHT22;251;48.704;9.210;2024-03-06T01:47:19;4.60;99.90
530;DHT22;251;48.704;9.210;2024-03-06T01:49:46;4.40;99.90
530;DHT22;251;48.704;9.210;2024-03-06T01:52:14;4.20;99.90
530;DHT22;251;48.704;9.210;2024-03-06T01:54:42;4.40;99.90
530;DHT22;251;48.704;9.210;2024-03-06T01:57:11;4.50;99.90
530;DHT22;251;48.704;9.210;2024-03-06T01:59:39;4.30;99.90
530;DHT22;251;48.704;9.210;2024-03-06T02:02:06;4.30;99.90
530;DHT22;251;48.704;9.210;2024-03-06T02:04:35;4.30;99.90
530;DHT22;251;48.704;9.210;2024-03-06T02:07:02;4.20;99.90
530;DHT22;251;48.704;9.210;2024-03-06T02:09:29;4.20;99.90
530;DHT22;251;48.704;9.210;2024-03-06T02:11:56;4.30;99.90
530;DHT22;251;48.704;9.210;2024-03-06T02:14:23;4.20;99.90
530;DHT22;251;48.704;9.210;2024-03-06T02:16:50;4.50;99.90
530;DHT22;251;48.704;9.210;2024-03-06T02:19:17;4.30;99.90
530;DHT22;251;48.704;9.210;2024-03-06T02:21:45;4.20;99.90
530;DHT22;251;48.704;9.210;2024-03-06T02:24:12;4.20;99.90
530;DHT22;251;48.704;9.210;2024-03-06T02:26:39;4.40;99.90
530;DHT22;251;48.704;9.210;2024-03-06T02:29:06;4.30;99.90
530;DHT22;251;48.704;9.210;2024-03-06T02:31:33;4.40;99.90
530;DHT22;251;48.704;9.210;2024-03-06T02:34:00;4.20;99.90
530;DHT22;251;48.704;9.210;2024-03-06T02:36:30;4.30;99.90
530;DHT22;251;48.704;9.210;2024-03-06T02:38:59;4.30;99.90
530;DHT22;251;48.704;9.210;2024-03-06T02:41:26;4.30;99.90
530;DHT22;251;48.704;9.210;2024-03-06T02:43:53;4.60;99.90
530;DHT22;251;48.704;9.210;2024-03-06T02:46:19;4.50;99.90
530;DHT22;251;48.704;9.210;2024-03-06T02:48:46;4.40;99.90
530;DHT22;251;48.704;9.210;2024-03-06T02:51:18;4.40;99.90
530;DHT22;251;48.704;9.210;2024-03-06T02:53:45;4.40;99.90
530;DHT22;251;48.704;9.210;2024-03-06T02:56:17;4.40;99.90
530;DHT22;251;48.704;9.210;2024-03-06T02:58:43;4.60;99.90
530;DHT22;251;48.704;9.210;2024-03-06T03:01:10;4.40;99.90
530;DHT22;251;48.704;9.210;2024-03-06T03:03:40;4.60;99.90
530;DHT22;251;48.704;9.210;2024-03-06T03:06:07;4.30;99.90
530;DHT22;251;48.704;9.210;2024-03-06T03:08:34;4.40;99.90
530;DHT22;251;48.704;9.210;2024-03-06T03:11:00;4.30;99.90
530;DHT22;251;48.704;9.210;2024-03-06T03:13:29;4.50;99.90
530;DHT22;251;48.704;9.210;2024-03-06T03:15:57;4.20;99.90
530;DHT22;251;48.704;9.210;2024-03-06T03:18:23;4.40;99.90
530;DHT22;251;48.704;9.210;2024-03-06T03:20:51;4.40;99.90
530;DHT22;251;48.704;9.210;2024-03-06T03:23:18;4.40;99.90
530;DHT22;251;48.704;9.210;2024-03-06T03:25:47;4.30;99.90
530;DHT22;251;48.704;9.210;2024-03-06T03:28:15;4.50;99.90
530;DHT22;251;48.704;9.210;2024-03-06T03:30:44;4.40;99.90
530;DHT22;251;48.704;9.210;2024-03-06T03:33:11;4.40;99.90
530;DHT22;251;48.704;9.210;2024-03-06T03:35:37;4.30;99.90
530;DHT22;251;48.704;9.210;2024-03-06T03:38:04;4.60;99.90
530;DHT22;251;48.704;9.210;2024-03-06T03:40:31;4.40;99.90
530;DHT22;251;48.704;9.210;2024-03-06T03:42:59;4.70;99.90
530;DHT22;251;48.704;9.210;2024-03-06T03:45:31;4.50;99.90
530;DHT22;251;48.704;9.210;2024-03-06T03:48:01;4.60;99.90
530;DHT22;251;48.704;9.210;2024-03-06T03:50:28;4.30;99.90
530;DHT22;251;48.704;9.210;2024-03-06T03:52:55;4.30;99.90
530;DHT22;251;48.704;9.210;2024-03-06T03:55:23;4.40;99.90
530;DHT22;251;48.704;9.210;2024-03-06T03:57:50;4.70;99.90
530;DHT22;251;48.704;9.210;2024-03-06T04:00:18;4.40;99.90
530;DHT22;251;48.704;9.210;2024-03-06T04:02:45;4.70;99.90
530;DHT22;251;48.704;9.210;2024-03-06T04:05:13;4.40;99.90
530;DHT22;251;48.704;9.210;2024-03-06T04:07:40;4.40;99.90
530;DHT22;251;48.704;9.210;2024-03-06T04:10:07;4.30;99.90
530;DHT22;251;48.704;9.210;2024-03-06T04:12:36;4.40;99.90
530;DHT22;251;48.704;9.210;2024-03-06T04:15:04;4.40;99.90
530;DHT22;251;48.704;9.210;2024-03-06T04:17:33;4.60;99.90
530;DHT22;251;48.704;9.210;2024-03-06T04:20:00;4.30;99.90
530;DHT22;251;48.704;9.210;2024-03-06T04:22:29;4.40;99.90
530;DHT22;251;48.704;9.210;2024-03-06T04:24:55;4.40;99.90
530;DHT22;251;48.704;9.210;2024-03-06T04:27:24;4.30;99.90
530;DHT22;251;48.704;9.210;2024-03-06T04:29:51;4.40;99.90
530;DHT22;251;48.704;9.210;2024-03-06T04:32:18;4.60;99.90
530;DHT22;251;48.704;9.210;2024-03-06T04:34:44;4.40;99.90
530;DHT22;251;48.704;9.210;2024-03-06T04:37:12;4.40;99.90
530;DHT22;251;48.704;9.210;2024-03-06T04:39:40;4.40;99.90
530;DHT22;251;48.704;9.210;2024-03-06T04:42:07;4.70;99.90
530;DHT22;251;48.704;9.210;2024-03-06T04:44:34;4.60;99.90
530;DHT22;251;48.704;9.210;2024-03-06T04:47:01;4.60;99.90
530;DHT22;251;48.704;9.210;2024-03-06T04:49:28;4.80;99.90
530;DHT22;251;48.704;9.210;2024-03-06T04:51:55;4.60;99.90
530;DHT22;251;48.704;9.210;2024-03-06T04:54:21;4.70;99.90
530;DHT22;251;48.704;9.210;2024-03-06T04:56:49;4.60;99.90
530;DHT22;251;48.704;9.210;2024-03-06T04:59:16;4.70;99.90
530;DHT22;251;48.704;9.210;2024-03-06T05:01:43;4.60;99.90
530;DHT22;251;48.704;9.210;2024-03-06T05:04:10;4.70;99.90
530;DHT22;251;48.704;9.210;2024-03-06T05:06:37;4.70;99.90
530;DHT22;251;48.704;9.210;2024-03-06T05:09:04;4.50;99.90
530;DHT22;251;48.704;9.210;2024-03-06T05:11:31;4.60;99.90
530;DHT22;251;48.704;9.210;2024-03-06T05:14:00;4.60;99.90
530;DHT22;251;48.704;9.210;2024-03-06T05:16:27;4.60;99.90
530;DHT22;251;48.704;9.210;2024-03-06T05:18:53;4.50;99.90
530;DHT22;251;48.704;9.210;2024-03-06T05:21:21;4.50;99.90
530;DHT22;251;48.704;9.210;2024-03-06T05:23:48;4.80;99.90
530;DHT22;251;48.704;9.210;2024-03-06T05:26:15;4.80;99.90
530;DHT22;251;48.704;9.210;2024-03-06T05:28:42;4.70;99.90
530;DHT22;251;48.704;9.210;2024-03-06T05:31:17;4.60;99.90
530;DHT22;251;48.704;9.210;2024-03-06T05:33:47;4.80;99.90
530;DHT22;251;48.704;9.210;2024-03-06T05:36:14;4.90;99.90
530;DHT22;251;48.704;9.210;2024-03-06T05:38:40;4.60;99.90
530;DHT22;251;48.704;9.210;2024-03-06T05:41:08;5.00;99.90
530;DHT22;251;48.704;9.210;2024-03-06T05:43:35;4.90;99.90
530;DHT22;251;48.704;9.210;2024-03-06T05:46:02;4.70;99.90
530;DHT22;251;48.704;9.210;2024-03-06T05:48:30;4.90;99.90
530;DHT22;251;48.704;9.210;2024-03-06T05:50:59;4.70;99.90
530;DHT22;251;48.704;9.210;2024-03-06T05:53:25;4.70;99.90
530;DHT22;251;48.704;9.210;2024-03-06T05:55:52;4.80;99.90
530;DHT22;251;48.704;9.210;2024-03-06T05:58:20;5.00;99.90
530;DHT22;251;48.704;9.210;2024-03-06T06:00:47;4.90;99.90
530;DHT22;251;48.704;9.210;2024-03-06T06:03:14;4.90;99.90
530;DHT22;251;48.704;9.210;2024-03-06T06:05:42;5.10;99.90
530;DHT22;251;48.704;9.210;2024-03-06T06:08:09;4.80;99.90
530;DHT22;251;48.704;9.210;2024-03-06T06:10:36;4.90;99.90
530;DHT22;251;48.704;9.210;2024-03-06T06:13:03;5.10;99.90
530;DHT22;251;48.704;9.210;2024-03-06T06:15:31;5.00;99.90
530;DHT22;251;48.704;9.210;2024-03-06T06:17:57;5.00;99.90
530;DHT22;251;48.704;9.210;2024-03-06T06:20:24;5.20;99.90
530;DHT22;251;48.704;9.210;2024-03-06T06:22:53;5.00;99.90
530;DHT22;251;48.704;9.210;2024-03-06T06:25:20;5.00;99.90
530;DHT22;251;48.704;9.210;2024-03-06T06:27:47;4.90;99.90
530;DHT22;251;48.704;9.210;2024-03-06T06:30:15;4.90;99.90
530;DHT22;251;48.704;9.210;2024-03-06T06:32:42;4.90;99.90
530;DHT22;251;48.704;9.210;2024-03-06T06:35:09;5.20;99.90
530;DHT22;251;48.704;9.210;2024-03-06T06:37:37;5.20;99.90
530;DHT22;251;48.704;9.210;2024-03-06T06:40:06;5.20;99.90
530;DHT22;251;48.704;9.210;2024-03-06T06:42:34;5.10;99.90
530;DHT22;251;48.704;9.210;2024-03-06T06:45:01;5.40;99.90
530;DHT22;251;48.704;9.210;2024-03-06T06:47:28;5.10;99.90
530;DHT22;251;48.704;9.210;2024-03-06T06:49:55;5.30;99.90
530;DHT22;251;48.704;9.210;2024-03-06T06:52:22;5.10;99.90
530;DHT22;251;48.704;9.210;2024-03-06T06:54:48;5.50;99.90
530;DHT22;251;48.704;9.210;2024-03-06T06:57:18;5.30;99.90
530;DHT22;251;48.704;9.210;2024-03-06T06:59:45;5.30;99.90
530;DHT22;251;48.704;9.210;2024-03-06T07:02:12;5.40;99.90
530;DHT22;251;48.704;9.210;2024-03-06T07:04:39;5.60;99.90
530;DHT22;251;48.704;9.210;2024-03-06T07:07:06;5.50;99.90
530;DHT22;251;48.704;9.210;2024-03-06T07:09:32;5.40;99.90
530;DHT22;251;48.704;9.210;2024-03-06T07:11:59;5.70;99.90
530;DHT22;251;48.704;9.210;2024-03-06T07:14:27;5.60;99.90
530;DHT22;251;48.704;9.210;2024-03-06T07:16:54;5.60;99.90
530;DHT22;251;48.704;9.210;2024-03-06T07:19:21;5.60;99.90
530;DHT22;251;48.704;9.210;2024-03-06T07:21:47;5.80;99.90
530;DHT22;251;48.704;9.210;2024-03-06T07:24:14;5.70;99.90
530;DHT22;251;48.704;9.210;2024-03-06T07:26:41;5.70;99.90
530;DHT22;251;48.704;9.210;2024-03-06T07:29:08;5.80;99.90
530;DHT22;251;48.704;9.210;2024-03-06T07:31:41;5.70;99.90
530;DHT22;251;48.704;9.210;2024-03-06T07:34:08;5.70;99.90
530;DHT22;251;48.704;9.210;2024-03-06T07:36:35;6.00;99.90
530;DHT22;251;48.704;9.210;2024-03-06T07:39:02;6.00;99.90
530;DHT22;251;48.704;9.210;2024-03-06T07:41:30;5.90;99.90
530;DHT22;251;48.704;9.210;2024-03-06T07:43:58;6.00;99.90
530;DHT22;251;48.704;9.210;2024-03-06T07:46:25;6.20;99.90
530;DHT22;251;48.704;9.210;2024-03-06T07:48:54;6.30;99.90
530;DHT22;251;48.704;9.210;2024-03-06T07:51:21;6.10;98.60
530;DHT22;251;48.704;9.210;2024-03-06T07:53:48;6.00;96.80
530;DHT22;251;48.704;9.210;2024-03-06T07:56:16;6.20;94.40
530;DHT22;251;48.704;9.210;2024-03-06T07:58:42;6.10;96.70
530;DHT22;251;48.704;9.210;2024-03-06T08:01:09;6.20;96.10
530;DHT22;251;48.704;9.210;2024-03-06T08:03:38;6.10;98.50
530;DHT22;251;48.704;9.210;2024-03-06T08:06:07;6.20;99.70
530;DHT22;251;48.704;9.210;2024-03-06T08:08:34;6.20;98.70
530;DHT22;251;48.704;9.210;2024-03-06T08:11:01;6.00;96.60
530;DHT22;251;48.704;9.210;2024-03-06T08:13:28;6.00;95.40
530;DHT22;251;48.704;9.210;2024-03-06T08:15:55;6.30;96.50
530;DHT22;251;48.704;9.210;2024-03-06T08:18:22;6.20;95.30
530;DHT22;251;48.704;9.210;2024-03-06T08:20:48;6.00;95.90
530;DHT22;251;48.704;9.210;2024-03-06T08:23:17;6.30;95.10
530;DHT22;251;48.704;9.210;2024-03-06T08:25:43;6.40;96.20
530;DHT22;251;48.704;9.210;2024-03-06T08:28:10;6.20;94.80
530;DHT22;251;48.704;9.210;2024-03-06T08:30:37;6.20;94.40
530;DHT22;251;48.704;9.210;2024-03-06T08:33:04;6.40;94.30
530;DHT22;251;48.704;9.210;2024-03-06T08:35:31;6.50;93.40
530;DHT22;251;48.704;9.210;2024-03-06T08:37:57;6.50;91.50
530;DHT22;251;48.704;9.210;2024-03-06T08:40:26;6.50;92.30
530;DHT22;251;48.704;9.210;2024-03-06T08:42:53;6.60;92.20
530;DHT22;251;48.704;9.210;2024-03-06T08:45:21;6.70;91.50
530;DHT22;251;48.704;9.210;2024-03-06T08:47:49;6.50;90.60
530;DHT22;251;48.704;9.210;2024-03-06T08:50:16;6.40;83.70
530;DHT22;251;48.704;9.210;2024-03-06T08:52:42;6.60;90.00
530;DHT22;251;48.704;9.210;2024-03-06T08:55:09;6.60;90.10
530;DHT22;251;48.704;9.210;2024-03-06T08:57:38;6.60;82.00
530;DHT22;251;48.704;9.210;2024-03-06T09:00:06;6.40;86.70
530;DHT22;251;48.704;9.210;2024-03-06T09:02:36;6.50;86.50
530;DHT22;251;48.704;9.210;2024-03-06T09:05:05;6.30;86.10
530;DHT22;251;48.704;9.210;2024-03-06T09:07:32;6.60;85.90
530;DHT22;251;48.704;9.210;2024-03-06T09:10:03;6.40;86.70
530;DHT22;251;48.704;9.210;2024-03-06T09:12:31;6.40;87.20
530;DHT22;251;48.704;9.210;2024-03-06T09:15:01;6.50;88.50
530;DHT22;251;48.704;9.210;2024-03-06T09:17:28;6.60;89.80
530;DHT22;251;48.704;9.210;2024-03-06T09:19:55;6.60;91.00
530;DHT22;251;48.704;9.210;2024-03-06T09:22:22;6.60;85.60
530;DHT22;251;48.704;9.210;2024-03-06T09:24:48;6.70;86.70
530;DHT22;251;48.704;9.210;2024-03-06T09:27:16;6.60;90.50
530;DHT22;251;48.704;9.210;2024-03-06T09:29:43;6.70;90.00
530;DHT22;251;48.704;9.210;2024-03-06T09:32:11;6.70;90.60
530;DHT22;251;48.704;9.210;2024-03-06T09:34:41;6.60;90.70
530;DHT22;251;48.704;9.210;2024-03-06T09:37:08;6.60;91.70
530;DHT22;251;48.704;9.210;2024-03-06T09:39:35;6.30;92.10
530;DHT22;251;48.704;9.210;2024-03-06T09:42:02;6.60;92.20
530;DHT22;251;48.704;9.210;2024-03-06T09:44:29;6.40;92.40
530;DHT22;251;48.704;9.210;2024-03-06T09:46:58;6.30;94.40
530;DHT22;251;48.704;9.210;2024-03-06T09:49:27;6.30;94.60
530;DHT22;251;48.704;9.210;2024-03-06T09:51:55;6.30;95.30
530;DHT22;251;48.704;9.210;2024-03-06T09:54:25;6.50;92.40
530;DHT22;251;48.704;9.210;2024-03-06T09:56:52;6.70;93.40
530;DHT22;251;48.704;9.210;2024-03-06T09:59:21;6.70;93.10
530;DHT22;251;48.704;9.210;2024-03-06T10:01:50;6.50;93.20
530;DHT22;251;48.704;9.210;2024-03-06T10:04:18;6.40;93.60
530;DHT22;251;48.704;9.210;2024-03-06T10:06:46;6.50;95.40
530;DHT22;251;48.704;9.210;2024-03-06T10:09:17;6.40;94.70
530;DHT22;251;48.704;9.210;2024-03-06T10:11:43;6.40;94.80
530;DHT22;251;48.704;9.210;2024-03-06T10:14:10;6.50;93.80
530;DHT22;251;48.704;9.210;2024-03-06T10:16:37;6.50;95.20
530;DHT22;251;48.704;9.210;2024-03-06T10:19:15;6.30;95.50
530;DHT22;251;48.704;9.210;2024-03-06T10:21:46;6.40;95.20
530;DHT22;251;48.704;9.210;2024-03-06T10:24:17;6.50;97.10
530;DHT22;251;48.704;9.210;2024-03-06T10:26:45;6.60;95.20
530;DHT22;251;48.704;9.210;2024-03-06T10:29:16;6.50;96.40
530;DHT22;251;48.704;9.210;2024-03-06T10:31:49;6.40;96.00
530;DHT22;251;48.704;9.210;2024-03-06T10:34:17;6.70;94.10
530;DHT22;251;48.704;9.210;2024-03-06T10:36:49;6.70;93.50
530;DHT22;251;48.704;9.210;2024-03-06T10:39:20;6.80;93.90
530;DHT22;251;48.704;9.210;2024-03-06T10:41:52;6.80;94.20
530;DHT22;251;48.704;9.210;2024-03-06T10:44:22;7.20;92.30
530;DHT22;251;48.704;9.210;2024-03-06T10:46:55;7.10;90.20
530;DHT22;251;48.704;9.210;2024-03-06T10:49:24;7.30;83.80
530;DHT22;251;48.704;9.210;2024-03-06T10:51:54;7.10;82.90
530;DHT22;251;48.704;9.210;2024-03-06T10:54:27;7.30;80.50
530;DHT22;251;48.704;9.210;2024-03-06T10:56:55;7.10;77.90
530;DHT22;251;48.704;9.210;2024-03-06T10:59:25;7.00;82.20
530;DHT22;251;48.704;9.210;2024-03-06T11:01:53;7.30;82.80
530;DHT22;251;48.704;9.210;2024-03-06T11:04:23;7.00;80.80
530;DHT22;251;48.704;9.210;2024-03-06T11:06:52;7.30;83.50
530;DHT22;251;48.704;9.210;2024-03-06T11:09:19;7.20;83.80
530;DHT22;251;48.704;9.210;2024-03-06T11:11:50;7.30;81.30
530;DHT22;251;48.704;9.210;2024-03-06T11:14:18;7.20;77.50
530;DHT22;251;48.704;9.210;2024-03-06T11:17:02;7.30;81.10
530;DHT22;251;48.704;9.210;2024-03-06T11:19:29;7.00;79.50
530;DHT22;251;48.704;9.210;2024-03-06T11:21:58;7.30;84.70
530;DHT22;251;48.704;9.210;2024-03-06T11:24:32;7.30;82.40
530;DHT22;251;48.704;9.210;2024-03-06T11:27:00;7.10;79.70
530;DHT22;251;48.704;9.210;2024-03-06T11:29:28;7.20;82.60
530;DHT22;251;48.704;9.210;2024-03-06T11:32:04;7.20;81.90
530;DHT22;251;48.704;9.210;2024-03-06T11:34:33;7.20;85.50
530;DHT22;251;48.704;9.210;2024-03-06T11:37:04;7.20;90.00
530;DHT22;251;48.704;9.210;2024-03-06T11:39:35;7.10;89.90
530;DHT22;251;48.704;9.210;2024-03-06T11:42:03;7.20;90.70
530;DHT22;251;48.704;9.210;2024-03-06T11:44:34;7.00;74.30
530;DHT22;251;48.704;9.210;2024-03-06T11:47:03;7.00;85.40
530;DHT22;251;48.704;9.210;2024-03-06T11:49:31;7.00;84.80
530;DHT22;251;48.704;9.210;2024-03-06T11:52:02;6.70;88.40
530;DHT22;251;48.704;9.210;2024-03-06T11:54:31;7.10;91.30
530;DHT22;251;48.704;9.210;2024-03-06T11:57:00;7.00;91.90
530;DHT22;251;48.704;9.210;2024-03-06T11:59:29;7.00;92.40
530;DHT22;251;48.704;9.210;2024-03-06T12:01:57;6.90;89.00
530;DHT22;251;48.704;9.210;2024-03-06T12:04:24;7.00;92.40
530;DHT22;251;48.704;9.210;2024-03-06T12:06:51;7.00;94.40
530;DHT22;251;48.704;9.210;2024-03-06T12:09:19;7.00;93.50
530;DHT22;251;48.704;9.210;2024-03-06T12:11:47;6.70;92.00
530;DHT22;251;48.704;9.210;2024-03-06T12:14:14;6.80;94.10
530;DHT22;251;48.704;9.210;2024-03-06T12:16:43;6.90;94.40
530;DHT22;251;48.704;9.210;2024-03-06T12:19:10;6.90;93.90
530;DHT22;251;48.704;9.210;2024-03-06T12:21:39;6.70;92.30
530;DHT22;251;48.704;9.210;2024-03-06T12:24:07;6.90;93.30
530;DHT22;251;48.704;9.210;2024-03-06T12:26:36;6.90;91.30
530;DHT22;251;48.704;9.210;2024-03-06T12:29:07;6.80;90.00
530;DHT22;251;48.704;9.210;2024-03-06T12:31:35;6.70;91.70
530;DHT22;251;48.704;9.210;2024-03-06T12:34:02;6.80;91.80
530;DHT22;251;48.704;9.210;2024-03-06T12:36:30;6.90;92.10
530;DHT22;251;48.704;9.210;2024-03-06T12:38:59;7.00;92.30
530;DHT22;251;48.704;9.210;2024-03-06T12:41:26;6.90;91.80
530;DHT22;251;48.704;9.210;2024-03-06T12:43:56;7.00;90.60
530;DHT22;251;48.704;9.210;2024-03-06T12:46:23;7.00;92.60
530;DHT22;251;48.704;9.210;2024-03-06T12:48:52;6.70;91.60
530;DHT22;251;48.704;9.210;2024-03-06T12:51:18;6.90;93.40
530;DHT22;251;48.704;9.210;2024-03-06T12:53:45;6.90;91.20
530;DHT22;251;48.704;9.210;2024-03-06T12:56:13;6.60;90.40
530;DHT22;251;48.704;9.210;2024-03-06T12:58:40;6.50;90.50
530;DHT22;251;48.704;9.210;2024-03-06T13:01:08;6.90;92.50
530;DHT22;251;48.704;9.210;2024-03-06T13:03:35;6.80;93.10
530;DHT22;251;48.704;9.210;2024-03-06T13:06:03;6.90;92.20
530;DHT22;251;48.704;9.210;2024-03-06T13:08:30;6.70;92.50
530;DHT22;251;48.704;9.210;2024-03-06T13:10:57;7.00;95.50
530;DHT22;251;48.704;9.210;2024-03-06T13:13:25;7.00;94.40
530;DHT22;251;48.704;9.210;2024-03-06T13:15:54;6.90;93.30
530;DHT22;251;48.704;9.210;2024-03-06T13:18:22;7.00;89.30
530;DHT22;251;48.704;9.210;2024-03-06T13:20:49;7.00;89.50
530;DHT22;251;48.704;9.210;2024-03-06T13:23:16;6.90;92.70
530;DHT22;251;48.704;9.210;2024-03-06T13:25:43;6.90;94.20
530;DHT22;251;48.704;9.210;2024-03-06T13:28:11;7.00;93.60
530;DHT22;251;48.704;9.210;2024-03-06T13:30:38;7.20;94.40
530;DHT22;251;48.704;9.210;2024-03-06T13:33:05;7.00;91.40
530;DHT22;251;48.704;9.210;2024-03-06T13:35:34;7.00;91.30
530;DHT22;251;48.704;9.210;2024-03-06T13:38:01;7.30;91.50
530;DHT22;251;48.704;9.210;2024-03-06T13:40:28;7.10;91.40
530;DHT22;251;48.704;9.210;2024-03-06T13:42:55;7.00;86.20
530;DHT22;251;48.704;9.210;2024-03-06T13:45:22;7.10;86.80
530;DHT22;251;48.704;9.210;2024-03-06T13:47:48;7.10;90.80
530;DHT22;251;48.704;9.210;2024-03-06T13:50:16;7.50;92.30
530;DHT22;251;48.704;9.210;2024-03-06T13:52:47;7.30;91.90
530;DHT22;251;48.704;9.210;2024-03-06T13:55:14;7.50;91.40
530;DHT22;251;48.704;9.210;2024-03-06T13:57:41;7.30;87.20
530;DHT22;251;48.704;9.210;2024-03-06T14:00:09;7.30;84.80
530;DHT22;251;48.704;9.210;2024-03-06T14:02:42;7.40;85.70
530;DHT22;251;48.704;9.210;2024-03-06T14:05:09;7.40;88.10
530;DHT22;251;48.704;9.210;2024-03-06T14:07:36;7.20;85.90
530;DHT22;251;48.704;9.210;2024-03-06T14:10:05;7.30;85.90
530;DHT22;251;48.704;9.210;2024-03-06T14:12:33;7.40;88.50
530;DHT22;251;48.704;9.210;2024-03-06T14:15:00;7.10;91.70
530;DHT22;251;48.704;9.210;2024-03-06T14:17:27;7.20;90.40
530;DHT22;251;48.704;9.210;2024-03-06T14:19:54;7.30;89.60
530;DHT22;251;48.704;9.210;2024-03-06T14:22:21;7.00;91.90
530;DHT22;251;48.704;9.210;2024-03-06T14:24:47;7.20;92.20
530;DHT22;251;48.704;9.210;2024-03-06T14:27:15;7.10;91.60
530;DHT22;251;48.704;9.210;2024-03-06T14:29:42;7.10;92.70
530;DHT22;251;48.704;9.210;2024-03-06T14:32:10;7.10;92.40
530;DHT22;251;48.704;9.210;2024-03-06T14:34:37;6.90;93.30
530;DHT22;251;48.704;9.210;2024-03-06T14:37:04;6.80;94.30
530;DHT22;251;48.704;9.210;2024-03-06T14:39:30;6.90;96.90
530;DHT22;251;48.704;9.210;2024-03-06T14:41:57;7.10;96.30
530;DHT22;251;48.704;9.210;2024-03-06T14:44:26;7.10;95.50
530;DHT22;251;48.704;9.210;2024-03-06T14:46:53;7.10;96.90
530;DHT22;251;48.704;9.210;2024-03-06T14:49:19;6.80;97.40
530;DHT22;251;48.704;9.210;2024-03-06T14:51:46;6.90;99.20
530;DHT22;251;48.704;9.210;2024-03-06T14:54:13;6.90;99.20
530;DHT22;251;48.704;9.210;2024-03-06T14:56:41;6.90;99.60
530;DHT22;251;48.704;9.210;2024-03-06T14:59:08;7.10;99.90
530;DHT22;251;48.704;9.210;2024-03-06T15:01:36;7.10;99.90
530;DHT22;251;48.704;9.210;2024-03-06T15:04:03;7.10;99.70
530;DHT22;251;48.704;9.210;2024-03-06T15:06:30;7.10;99.90
530;DHT22;251;48.704;9.210;2024-03-06T15:08:57;7.00;99.90
530;DHT22;251;48.704;9.210;2024-03-06T15:11:24;7.20;99.90
530;DHT22;251;48.704;9.210;2024-03-06T15:13:50;7.10;99.90
530;DHT22;251;48.704;9.210;2024-03-06T15:16:17;7.20;99.90
530;DHT22;251;48.704;9.210;2024-03-06T15:18:45;7.10;99.90
530;DHT22;251;48.704;9.210;2024-03-06T15:21:13;7.00;99.90
530;DHT22;251;48.704;9.210;2024-03-06T15:23:40;7.00;99.90
530;DHT22;251;48.704;9.210;2024-03-06T15:26:07;7.10;99.90
530;DHT22;251;48.704;9.210;2024-03-06T15:28:34;7.10;99.20
530;DHT22;251;48.704;9.210;2024-03-06T15:31:00;7.10;99.90
530;DHT22;251;48.704;9.210;2024-03-06T15:33:29;7.10;99.90
530;DHT22;251;48.704;9.210;2024-03-06T15:35:57;6.70;99.90
530;DHT22;251;48.704;9.210;2024-03-06T15:38:25;7.00;99.90
530;DHT22;251;48.704;9.210;2024-03-06T15:40:52;6.80;99.90
530;DHT22;251;48.704;9.210;2024-03-06T15:43:19;7.00;99.90
530;DHT22;251;48.704;9.210;2024-03-06T15:45:45;7.10;99.90
530;DHT22;251;48.704;9.210;2024-03-06T15:48:12;7.10;99.90
530;DHT22;251;48.704;9.210;2024-03-06T15:50:39;7.10;99.90
530;DHT22;251;48.704;9.210;2024-03-06T15:53:08;7.00;99.90
530;DHT22;251;48.704;9.210;2024-03-06T15:55:35;7.00;99.90
530;DHT22;251;48.704;9.210;2024-03-06T15:58:03;7.00;99.90
530;DHT22;251;48.704;9.210;2024-03-06T16:00:30;6.80;99.90
530;DHT22;251;48.704;9.210;2024-03-06T16:02:57;6.90;99.90
530;DHT22;251;48.704;9.210;2024-03-06T16:05:25;6.80;99.90
530;DHT22;251;48.704;9.210;2024-03-06T16:07:54;7.00;99.90
530;DHT22;251;48.704;9.210;2024-03-06T16:10:24;7.00;99.90
530;DHT22;251;48.704;9.210;2024-03-06T16:12:50;7.00;99.90
530;DHT22;251;48.704;9.210;2024-03-06T16:15:17;7.00;99.90
530;DHT22;251;48.704;9.210;2024-03-06T16:17:45;6.80;99.90
530;DHT22;251;48.704;9.210;2024-03-06T16:20:11;6.80;99.90
530;DHT22;251;48.704;9.210;2024-03-06T16:22:38;7.00;99.90
530;DHT22;251;48.704;9.210;2024-03-06T16:25:06;6.80;99.90
530;DHT22;251;48.704;9.210;2024-03-06T16:27:34;6.90;99.90
530;DHT22;251;48.704;9.210;2024-03-06T16:30:01;6.90;99.90
530;DHT22;251;48.704;9.210;2024-03-06T16:32:28;7.00;99.90
530;DHT22;251;48.704;9.210;2024-03-06T16:34:55;7.10;99.90
530;DHT22;251;48.704;9.210;2024-03-06T16:37:22;6.80;99.90
530;DHT22;251;48.704;9.210;2024-03-06T16:39:49;6.80;99.90
530;DHT22;251;48.704;9.210;2024-03-06T16:42:16;6.70;99.90
530;DHT22;251;48.704;9.210;2024-03-06T16:44:45;6.90;99.90
530;DHT22;251;48.704;9.210;2024-03-06T16:47:12;7.00;99.90
530;DHT22;251;48.704;9.210;2024-03-06T16:49:39;6.80;99.90
530;DHT22;251;48.704;9.210;2024-03-06T16:52:06;7.00;99.90
530;DHT22;251;48.704;9.210;2024-03-06T16:54:32;6.70;99.90